Time;durP1;ratioP1;P1;durP2;ratioP2;P2;SDS_P1;SDS_P2;PMS_P1;PMS_P2;Temp;Humidity;BMP_temperature;BMP_pressure;BME280_temperature;BME280_humidity;BME280_pressure;Samples;Min_cycle;Max_cycle;Signal;HPM_P1;HPM_P2
2022/03/05 00:00:44;;;;;;;48.17;20.25;;;5.00;46.10;;;;;;5018933;28;20057;-44
2022/03/05 00:03:12;;;;;;;53.47;21.95;;;5.00;45.70;;;;;;5022324;28;20176;-42
2022/03/05 00:05:41;;;;;;;59.65;21.98;;;5.00;45.80;;;;;;5020018;28;20080;-42
2022/03/05 00:08:10;;;;;;;55.20;22.10;;;5.00;45.90;;;;;;5021250;28;20048;-43
2022/03/05 00:10:38;;;;;;;51.95;21.00;;;4.90;45.90;;;;;;5020902;28;20053;-43
2022/03/05 00:13:06;;;;;;;53.30;22.27;;;4.90;45.90;;;;;;5021980;28;20057;-42
2022/03/05 00:15:33;;;;;;;49.00;20.33;;;4.90;45.90;;;;;;5020326;28;20494;-42
2022/03/05 00:18:01;;;;;;;51.10;21.38;;;4.90;45.90;;;;;;5022749;28;20060;-42
2022/03/05 00:20:29;;;;;;;46.20;20.10;;;4.90;46.00;;;;;;5020287;28;20061;-44
2022/03/05 00:22:56;;;;;;;53.30;21.40;;;4.90;46.00;;;;;;5022460;28;20493;-43
2022/03/05 00:25:25;;;;;;;59.85;23.13;;;4.90;46.10;;;;;;5021515;28;20057;-43
2022/03/05 00:27:53;;;;;;;52.33;20.95;;;4.90;46.20;;;;;;5025275;28;20049;-43
2022/03/05 00:30:21;;;;;;;53.25;21.05;;;4.90;46.20;;;;;;5023799;28;20064;-43
2022/03/05 00:32:50;;;;;;;51.30;20.17;;;4.80;46.10;;;;;;5024608;28;20496;-42
2022/03/05 00:35:17;;;;;;;55.33;21.70;;;4.80;46.10;;;;;;5022498;28;20049;-42
2022/03/05 00:37:45;;;;;;;51.05;20.15;;;4.80;46.10;;;;;;5025910;28;20042;-44
2022/03/05 00:40:13;;;;;;;50.05;20.40;;;4.80;46.10;;;;;;5025438;28;20057;-43
2022/03/05 00:42:42;;;;;;;47.90;19.17;;;4.80;46.10;;;;;;5025096;28;20072;-42
2022/03/05 00:45:10;;;;;;;55.60;21.58;;;4.70;46.10;;;;;;5019948;28;20421;-43
2022/03/05 00:47:38;;;;;;;48.30;20.70;;;4.70;46.10;;;;;;5026008;28;20054;-42
2022/03/05 00:50:07;;;;;;;55.97;21.67;;;4.70;46.20;;;;;;5024173;28;20481;-43
2022/03/05 00:52:35;;;;;;;58.00;22.48;;;4.70;46.30;;;;;;5022606;28;20409;-42
2022/03/05 00:55:03;;;;;;;49.35;20.92;;;4.60;46.50;;;;;;5023189;28;20535;-43
2022/03/05 00:57:31;;;;;;;61.78;24.13;;;4.70;46.80;;;;;;5025327;28;20054;-43
2022/03/05 01:00:00;;;;;;;57.75;21.60;;;4.60;46.80;;;;;;5024872;28;20049;-42
2022/03/05 01:02:27;;;;;;;60.92;23.98;;;4.60;46.90;;;;;;5025370;28;20053;-42
2022/03/05 01:04:55;;;;;;;60.65;24.08;;;4.50;47.00;;;;;;5017951;28;20058;-47
2022/03/05 01:07:22;;;;;;;59.15;22.63;;;4.50;47.60;;;;;;5025107;28;20489;-44
2022/03/05 01:09:50;;;;;;;60.80;23.60;;;4.50;47.30;;;;;;5025412;28;20057;-43
2022/03/05 01:12:19;;;;;;;56.35;21.80;;;4.50;47.40;;;;;;5022643;28;20398;-43
2022/03/05 01:14:46;;;;;;;59.72;22.98;;;4.50;47.50;;;;;;5023080;28;20065;-46
2022/03/05 01:17:15;;;;;;;61.28;23.95;;;4.40;47.50;;;;;;5024667;28;20053;-43
2022/03/05 01:19:43;;;;;;;65.78;24.65;;;4.40;47.70;;;;;;5023409;28;20064;-42
2022/03/05 01:22:11;;;;;;;57.38;23.25;;;4.40;47.70;;;;;;5025045;28;20061;-43
2022/03/05 01:24:38;;;;;;;54.97;21.95;;;4.40;47.80;;;;;;5020976;28;20406;-43
2022/03/05 01:27:06;;;;;;;60.90;23.95;;;4.40;47.80;;;;;;5024134;28;20064;-44
2022/03/05 01:29:34;;;;;;;61.30;23.08;;;4.30;47.80;;;;;;5023531;28;20049;-43
2022/03/05 01:32:01;;;;;;;67.70;25.88;;;4.30;47.80;;;;;;5021141;28;20075;-43
2022/03/05 01:34:30;;;;;;;63.67;22.77;;;4.30;47.90;;;;;;5020471;28;20064;-42
2022/03/05 01:36:58;;;;;;;58.65;24.10;;;4.30;47.90;;;;;;5024987;28;20061;-43
2022/03/05 01:39:25;;;;;;;50.60;20.65;;;4.20;47.70;;;;;;5024269;28;20052;-42
2022/03/05 01:41:55;;;;;;;52.97;21.30;;;4.20;47.80;;;;;;5024143;28;20511;-42
2022/03/05 01:44:24;;;;;;;62.05;23.98;;;4.20;47.80;;;;;;5022181;28;20054;-42
2022/03/05 01:46:51;;;;;;;63.42;23.70;;;4.20;48.10;;;;;;5023124;28;20057;-44
2022/03/05 01:49:19;;;;;;;66.88;24.77;;;4.20;48.20;;;;;;5023205;28;20060;-43
2022/03/05 01:51:48;;;;;;;60.10;23.48;;;4.10;48.20;;;;;;5022547;28;20057;-42
2022/03/05 01:54:16;;;;;;;58.03;22.45;;;4.10;48.30;;;;;;5021987;28;20405;-43
2022/03/05 01:56:45;;;;;;;52.60;20.48;;;4.10;48.30;;;;;;5024584;28;20054;-43
2022/03/05 01:59:13;;;;;;;56.08;21.23;;;4.10;48.20;;;;;;5023030;28;20057;-43
2022/03/05 02:01:40;;;;;;;60.58;23.67;;;4.10;48.30;;;;;;5023714;28;20053;-43
2022/03/05 02:04:08;;;;;;;56.88;21.67;;;4.10;48.30;;;;;;5021808;28;20398;-43
2022/03/05 02:06:36;;;;;;;64.70;24.90;;;4.10;48.40;;;;;;5022557;28;20049;-42
2022/03/05 02:09:05;;;;;;;60.88;23.63;;;4.10;48.40;;;;;;5023104;28;20559;-42
2022/03/05 02:11:33;;;;;;;55.55;20.80;;;4.10;48.60;;;;;;5020384;28;20049;-43
2022/03/05 02:14:00;;;;;;;60.45;23.48;;;4.00;48.50;;;;;;5021972;28;20128;-42
2022/03/05 02:16:29;;;;;;;56.78;21.73;;;4.00;48.50;;;;;;5023445;28;20053;-42
2022/03/05 02:18:57;;;;;;;61.50;23.98;;;4.00;48.60;;;;;;5022397;28;20053;-43
2022/03/05 02:21:26;;;;;;;53.75;20.45;;;4.00;48.60;;;;;;5022823;28;20057;-43
2022/03/05 02:23:55;;;;;;;69.47;24.25;;;4.00;48.60;;;;;;5021121;28;20049;-46
2022/03/05 02:26:23;;;;;;;73.65;26.10;;;3.90;48.70;;;;;;5024017;28;20505;-42
2022/03/05 02:28:51;;;;;;;60.35;23.15;;;3.90;48.90;;;;;;5021235;28;20072;-42
2022/03/05 02:31:19;;;;;;;56.88;21.90;;;3.90;49.10;;;;;;5020872;28;20056;-43
2022/03/05 02:33:47;;;;;;;57.05;21.08;;;3.90;49.00;;;;;;5021064;28;20061;-42
2022/03/05 02:36:15;;;;;;;70.88;25.35;;;3.90;49.00;;;;;;5022972;28;20061;-43
2022/03/05 02:38:44;;;;;;;58.58;22.38;;;3.90;49.20;;;;;;5017518;28;20504;-43
2022/03/05 02:41:11;;;;;;;56.42;21.02;;;3.80;49.20;;;;;;5023206;28;20390;-42
2022/03/05 02:43:39;;;;;;;64.10;25.58;;;3.80;49.20;;;;;;5019557;28;20088;-42
2022/03/05 02:46:06;;;;;;;62.10;22.45;;;3.80;49.40;;;;;;5022037;28;20077;-43
2022/03/05 02:48:35;;;;;;;58.22;23.95;;;3.80;49.60;;;;;;5022938;28;20053;-42
2022/03/05 02:51:03;;;;;;;57.80;21.42;;;3.70;49.50;;;;;;5020399;28;20516;-42
2022/03/05 02:53:31;;;;;;;49.72;19.33;;;3.80;49.60;;;;;;5021833;28;20061;-42
2022/03/05 02:56:00;;;;;;;55.30;21.00;;;3.70;49.50;;;;;;5022105;28;20049;-43
2022/03/05 02:58:27;;;;;;;54.20;21.70;;;3.70;49.50;;;;;;5020102;28;20053;-42
2022/03/05 03:00:55;;;;;;;54.45;21.23;;;3.70;49.50;;;;;;5021896;28;20054;-42
2022/03/05 03:03:22;;;;;;;57.90;21.70;;;3.70;49.60;;;;;;5020010;28;20053;-42
2022/03/05 03:05:50;;;;;;;68.63;24.52;;;3.70;49.60;;;;;;5021110;28;20057;-42
2022/03/05 03:08:17;;;;;;;57.13;22.50;;;3.70;49.70;;;;;;5022184;28;20050;-46
2022/03/05 03:10:45;;;;;;;57.20;22.63;;;3.70;49.80;;;;;;5020639;28;20077;-43
2022/03/05 03:13:14;;;;;;;66.22;24.38;;;3.70;49.80;;;;;;5023227;28;20056;-43
2022/03/05 03:15:42;;;;;;;54.08;21.15;;;3.70;49.90;;;;;;5020384;28;20056;-42
2022/03/05 03:18:09;;;;;;;71.13;25.40;;;3.60;50.40;;;;;;5022837;28;20053;-47
2022/03/05 03:20:37;;;;;;;63.45;23.40;;;3.60;50.00;;;;;;5020695;28;20052;-42
2022/03/05 03:23:04;;;;;;;61.25;22.65;;;3.60;50.10;;;;;;5020218;28;20782;-42
2022/03/05 03:25:32;;;;;;;62.72;22.88;;;3.60;50.00;;;;;;5021925;28;20064;-43
2022/03/05 03:27:59;;;;;;;63.22;23.35;;;3.60;50.10;;;;;;5019126;28;20061;-44
2022/03/05 03:30:28;;;;;;;63.10;23.42;;;3.60;50.00;;;;;;5020420;28;20057;-43
2022/03/05 03:32:56;;;;;;;57.78;22.60;;;3.70;50.10;;;;;;5021627;28;20494;-43
2022/03/05 03:35:24;;;;;;;55.13;21.58;;;3.60;50.10;;;;;;5016886;28;20428;-44
2022/03/05 03:37:52;;;;;;;62.58;23.77;;;3.60;50.00;;;;;;5020538;28;20493;-43
2022/03/05 03:40:20;;;;;;;63.55;23.23;;;3.60;50.10;;;;;;5021029;28;20045;-44
2022/03/05 03:42:50;;;;;;;59.63;22.52;;;3.60;50.10;;;;;;5020626;28;20057;-43
2022/03/05 03:45:19;;;;;;;60.05;21.85;;;3.60;50.30;;;;;;5019115;28;20057;-42
2022/03/05 03:47:51;;;;;;;64.85;24.13;;;3.60;50.20;;;;;;5021469;28;20053;-43
2022/03/05 03:50:21;;;;;;;63.65;21.65;;;3.60;50.20;;;;;;5018629;28;20399;-43
2022/03/05 03:52:49;;;;;;;62.55;23.40;;;3.60;50.20;;;;;;5021187;28;20068;-43
2022/03/05 03:55:19;;;;;;;55.42;21.70;;;3.60;50.20;;;;;;5020527;28;20050;-43
2022/03/05 03:57:48;;;;;;;67.25;23.60;;;3.60;50.30;;;;;;5021413;28;20068;-43
2022/03/05 04:00:18;;;;;;;68.45;24.40;;;3.60;50.30;;;;;;5019951;28;20064;-43
2022/03/05 04:02:48;;;;;;;56.75;21.88;;;3.50;50.40;;;;;;5020079;28;20060;-43
2022/03/05 04:05:15;;;;;;;72.78;25.45;;;3.60;50.50;;;;;;5017787;28;20053;-43
2022/03/05 04:10:27;;;;;;;69.25;23.55;;;3.50;50.50;;;;;;5025469;28;20057;-43
2022/03/05 04:12:55;;;;;;;64.25;22.95;;;3.50;50.50;;;;;;5020196;28;20049;-43
2022/03/05 04:15:23;;;;;;;56.65;23.35;;;3.50;50.40;;;;;;5017913;28;20049;-43
2022/03/05 04:17:52;;;;;;;73.60;25.90;;;3.50;50.40;;;;;;5021471;28;20053;-42
2022/03/05 04:20:20;;;;;;;71.22;24.35;;;3.50;50.60;;;;;;5019869;28;20050;-43
2022/03/05 04:22:47;;;;;;;65.38;23.65;;;3.50;50.50;;;;;;5019920;28;20409;-43
2022/03/05 04:25:15;;;;;;;61.53;21.98;;;3.50;50.60;;;;;;5019809;28;20835;-43
2022/03/05 04:27:42;;;;;;;67.00;22.45;;;3.50;50.50;;;;;;5018504;28;20053;-46
2022/03/05 04:30:11;;;;;;;64.43;24.10;;;3.50;50.50;;;;;;5020266;28;20050;-43
2022/03/05 04:32:39;;;;;;;60.60;22.20;;;3.50;50.60;;;;;;5018731;28;20494;-43
2022/03/05 04:35:09;;;;;;;57.17;22.85;;;3.40;50.70;;;;;;5016545;28;20401;-43
2022/03/05 04:37:37;;;;;;;61.05;22.52;;;3.40;50.80;;;;;;5021397;28;20412;-43
2022/03/05 04:40:05;;;;;;;67.70;24.05;;;3.40;50.80;;;;;;5019095;28;20060;-43
2022/03/05 04:42:34;;;;;;;57.95;21.35;;;3.40;50.70;;;;;;5020285;28;20076;-43
2022/03/05 04:45:02;;;;;;;62.15;23.35;;;3.40;50.90;;;;;;5015523;28;20476;-43
2022/03/05 04:47:29;;;;;;;64.30;21.55;;;3.40;50.90;;;;;;5015154;28;20065;-43
2022/03/05 04:49:57;;;;;;;65.90;24.25;;;3.40;50.80;;;;;;5018497;28;20045;-43
2022/03/05 04:52:26;;;;;;;68.28;23.85;;;3.40;51.00;;;;;;5019257;28;20061;-43
2022/03/05 04:54:53;;;;;;;63.92;23.77;;;3.40;51.00;;;;;;5019688;28;20144;-43
2022/03/05 04:57:21;;;;;;;71.25;24.30;;;3.40;51.00;;;;;;5019120;28;20049;-43
2022/03/05 04:59:49;;;;;;;56.08;20.50;;;3.40;51.00;;;;;;5019910;28;20053;-43
2022/03/05 05:02:16;;;;;;;55.25;22.05;;;3.30;50.90;;;;;;5018648;28;20068;-43
2022/03/05 05:04:44;;;;;;;65.15;23.50;;;3.30;51.00;;;;;;5016757;28;20057;-43
2022/03/05 05:07:12;;;;;;;55.45;21.58;;;3.30;51.00;;;;;;5018925;28;20049;-43
2022/03/05 05:09:41;;;;;;;59.55;21.98;;;3.30;50.90;;;;;;5022437;28;20049;-44
2022/03/05 05:12:10;;;;;;;65.05;23.13;;;3.30;51.00;;;;;;5022560;28;20069;-43
2022/03/05 05:14:37;;;;;;;58.30;21.77;;;3.30;51.20;;;;;;5022469;28;20045;-43
2022/03/05 05:17:05;;;;;;;68.00;24.77;;;3.30;51.00;;;;;;5020189;28;20049;-43
2022/03/05 05:19:32;;;;;;;69.55;24.40;;;3.30;51.10;;;;;;5021862;28;20059;-42
2022/03/05 05:22:01;;;;;;;68.50;25.05;;;3.30;51.10;;;;;;5023877;28;20414;-43
2022/03/05 05:24:30;;;;;;;62.90;23.08;;;3.20;51.20;;;;;;5023366;28;20053;-43
2022/03/05 05:26:59;;;;;;;65.13;23.77;;;3.20;51.30;;;;;;5013460;28;20060;-44
2022/03/05 05:29:27;;;;;;;71.10;25.23;;;3.20;51.50;;;;;;5018326;28;20517;-43
2022/03/05 05:31:55;;;;;;;65.28;23.15;;;3.20;51.60;;;;;;5014071;28;20065;-43
2022/03/05 05:34:23;;;;;;;68.18;24.40;;;3.10;51.60;;;;;;5018319;28;20060;-43
2022/03/05 05:36:51;;;;;;;62.83;23.48;;;3.10;51.60;;;;;;5022896;28;20076;-44
2022/03/05 05:39:19;;;;;;;65.38;25.23;;;3.10;51.50;;;;;;5019767;28;20049;-43
2022/03/05 05:41:46;;;;;;;62.63;22.23;;;3.10;51.60;;;;;;5021835;28;20409;-43
2022/03/05 05:44:15;;;;;;;60.35;22.45;;;3.10;51.50;;;;;;5023951;28;20060;-43
2022/03/05 05:46:43;;;;;;;60.40;22.70;;;3.10;51.70;;;;;;5022059;28;20056;-43
2022/03/05 05:49:11;;;;;;;53.72;21.70;;;3.10;51.60;;;;;;5019460;28;20064;-43
2022/03/05 05:51:38;;;;;;;60.97;22.95;;;3.10;51.60;;;;;;5020754;28;20524;-43
2022/03/05 05:54:06;;;;;;;72.75;25.65;;;3.10;51.60;;;;;;5022067;28;20053;-43
2022/03/05 05:56:34;;;;;;;68.13;24.20;;;3.10;51.60;;;;;;5022812;28;20049;-44
2022/03/05 05:59:02;;;;;;;62.50;22.83;;;3.10;51.60;;;;;;5020964;28;20485;-43
2022/03/05 06:01:30;;;;;;;58.88;21.80;;;3.10;51.70;;;;;;5022017;28;20056;-43
2022/03/05 06:03:58;;;;;;;130.25;45.00;;;3.10;51.60;;;;;;5020794;28;20475;-44
2022/03/05 06:06:26;;;;;;;73.60;27.08;;;3.00;51.60;;;;;;5022853;28;20053;-43
2022/03/05 06:08:53;;;;;;;60.75;24.05;;;3.10;51.60;;;;;;5020241;28;20065;-42
2022/03/05 06:11:21;;;;;;;73.25;24.02;;;3.00;51.60;;;;;;5019523;28;20041;-45
2022/03/05 06:13:48;;;;;;;64.55;24.00;;;3.10;52.10;;;;;;5020549;28;20061;-43
2022/03/05 06:16:16;;;;;;;63.67;23.00;;;3.10;51.70;;;;;;5022419;28;20074;-43
2022/03/05 06:18:45;;;;;;;67.43;25.45;;;3.10;51.60;;;;;;5019288;28;20484;-43
2022/03/05 06:21:12;;;;;;;70.78;24.77;;;3.10;51.60;;;;;;5022825;28;20050;-45
2022/03/05 06:23:40;;;;;;;63.20;23.88;;;3.10;51.80;;;;;;5021379;28;20057;-42
2022/03/05 06:26:08;;;;;;;63.20;21.90;;;3.10;51.70;;;;;;5020546;28;20089;-43
2022/03/05 06:28:36;;;;;;;61.00;22.15;;;3.10;51.70;;;;;;5022684;28;20053;-43
2022/03/05 06:31:04;;;;;;;64.75;24.30;;;3.10;51.80;;;;;;5020713;28;20299;-43
2022/03/05 06:33:31;;;;;;;57.65;22.70;;;3.10;52.00;;;;;;5020324;28;20045;-44
2022/03/05 06:36:00;;;;;;;66.03;23.33;;;3.00;51.90;;;;;;5019218;28;20065;-43
2022/03/05 06:38:28;;;;;;;60.17;22.27;;;3.00;51.90;;;;;;5017401;28;20053;-43
2022/03/05 06:40:56;;;;;;;65.53;23.17;;;3.00;52.00;;;;;;5016186;28;20049;-43
2022/03/05 06:43:23;;;;;;;74.82;27.83;;;3.10;52.00;;;;;;5018867;28;20072;-42
2022/03/05 06:45:51;;;;;;;174.52;55.75;;;3.10;52.20;;;;;;5017937;28;20061;-43
2022/03/05 06:48:19;;;;;;;77.10;28.13;;;3.10;52.20;;;;;;5014421;28;20052;-44
2022/03/05 06:50:48;;;;;;;63.72;24.02;;;3.10;52.30;;;;;;5019570;28;20049;-43
2022/03/05 06:53:17;;;;;;;61.17;23.55;;;3.10;52.30;;;;;;5021473;28;20053;-43
2022/03/05 06:55:45;;;;;;;66.82;23.52;;;3.10;52.30;;;;;;5018079;28;20411;-43
2022/03/05 06:58:14;;;;;;;59.53;23.30;;;3.10;52.40;;;;;;5018685;28;20062;-42
2022/03/05 07:00:42;;;;;;;64.50;23.55;;;3.10;52.30;;;;;;5016202;28;20053;-42
2022/03/05 07:03:10;;;;;;;63.42;23.90;;;3.20;52.40;;;;;;5017396;28;20057;-43
2022/03/05 07:05:37;;;;;;;61.28;23.55;;;3.20;52.50;;;;;;5018991;28;20057;-43
2022/03/05 07:08:05;;;;;;;51.50;20.20;;;3.20;52.40;;;;;;5021972;28;20061;-45
2022/03/05 07:10:34;;;;;;;48.13;18.90;;;3.20;52.30;;;;;;5017029;28;20072;-43
2022/03/05 07:13:02;;;;;;;63.30;23.50;;;3.30;52.30;;;;;;5021571;28;20064;-43
2022/03/05 07:15:30;;;;;;;59.42;21.65;;;3.30;52.50;;;;;;5015703;28;20540;-43
2022/03/05 07:17:57;;;;;;;66.53;22.63;;;3.40;52.50;;;;;;5017947;28;20057;-43
2022/03/05 07:20:25;;;;;;;64.90;23.65;;;3.40;52.50;;;;;;5017368;28;20046;-43
2022/03/05 07:22:52;;;;;;;59.72;21.60;;;3.40;52.40;;;;;;5021220;28;20060;-44
2022/03/05 07:25:20;;;;;;;59.10;22.42;;;3.50;52.40;;;;;;5018543;28;20049;-43
2022/03/05 07:27:49;;;;;;;58.47;23.63;;;3.50;52.30;;;;;;5018192;28;20057;-43
2022/03/05 07:30:17;;;;;;;56.67;22.45;;;3.50;52.30;;;;;;5020371;28;20064;-43
2022/03/05 07:32:45;;;;;;;64.13;23.73;;;3.60;52.30;;;;;;5020166;28;20056;-43
2022/03/05 07:35:12;;;;;;;55.75;22.67;;;3.60;52.30;;;;;;5015776;28;20057;-43
2022/03/05 07:37:40;;;;;;;61.08;22.48;;;3.60;52.30;;;;;;5017079;28;20053;-45
2022/03/05 07:40:09;;;;;;;64.05;24.48;;;3.70;52.20;;;;;;5020012;28;20497;-43
2022/03/05 07:42:37;;;;;;;61.60;25.02;;;3.70;52.30;;;;;;5021885;28;20049;-47
2022/03/05 07:45:07;;;;;;;60.70;23.38;;;3.70;52.20;;;;;;5018375;28;20120;-43
2022/03/05 07:47:34;;;;;;;60.58;23.80;;;3.80;52.30;;;;;;5019842;28;20060;-43
2022/03/05 07:50:02;;;;;;;61.47;22.80;;;3.80;52.40;;;;;;5020721;28;20057;-43
2022/03/05 07:52:30;;;;;;;57.45;23.25;;;3.90;52.30;;;;;;5021129;28;20053;-43
2022/03/05 07:54:58;;;;;;;59.47;23.63;;;3.90;52.40;;;;;;5018547;28;20061;-42
2022/03/05 07:57:25;;;;;;;58.92;22.75;;;3.90;52.40;;;;;;5017889;28;20049;-45
2022/03/05 07:59:53;;;;;;;55.28;22.65;;;4.00;52.30;;;;;;5018191;28;20057;-44
2022/03/05 08:02:22;;;;;;;61.83;24.33;;;4.10;52.30;;;;;;5018342;28;20500;-43
2022/03/05 08:04:49;;;;;;;63.70;25.02;;;4.10;52.40;;;;;;5017092;28;20077;-43
2022/03/05 08:07:17;;;;;;;49.90;22.15;;;4.10;52.40;;;;;;5016150;28;20057;-44
2022/03/05 08:09:45;;;;;;;57.90;23.50;;;4.20;52.30;;;;;;5018077;28;20416;-43
2022/03/05 08:12:12;;;;;;;58.85;24.60;;;4.20;52.40;;;;;;5017955;28;20053;-43
2022/03/05 08:14:41;;;;;;;55.80;23.65;;;4.30;52.40;;;;;;5017791;28;20072;-44
2022/03/05 08:17:09;;;;;;;59.22;22.80;;;4.30;52.40;;;;;;5018493;28;20414;-44
2022/03/05 08:19:38;;;;;;;58.53;23.45;;;4.40;52.40;;;;;;5019916;28;20049;-43
2022/03/05 08:22:05;;;;;;;55.80;22.85;;;4.50;52.40;;;;;;5022451;28;20052;-43
2022/03/05 08:24:33;;;;;;;64.82;25.33;;;4.50;52.30;;;;;;5019397;28;20421;-44
2022/03/05 08:27:00;;;;;;;64.20;24.48;;;4.60;52.40;;;;;;5018736;28;20076;-43
2022/03/05 08:29:28;;;;;;;57.42;23.25;;;4.60;52.40;;;;;;5018005;28;20056;-43
2022/03/05 08:31:55;;;;;;;61.13;23.23;;;4.70;52.50;;;;;;5018536;28;20053;-43
2022/03/05 08:34:23;;;;;;;61.38;22.92;;;4.70;52.50;;;;;;5016745;28;20045;-43
2022/03/05 08:36:52;;;;;;;54.08;22.92;;;4.80;52.30;;;;;;5020362;28;20058;-43
2022/03/05 08:39:20;;;;;;;52.00;21.60;;;4.80;52.30;;;;;;5018718;28;20045;-43
2022/03/05 08:41:48;;;;;;;51.78;21.65;;;4.90;52.20;;;;;;5020437;28;20049;-42
2022/03/05 08:44:16;;;;;;;76.57;28.33;;;5.00;52.20;;;;;;5019840;28;20049;-43
2022/03/05 08:46:43;;;;;;;57.42;24.20;;;5.00;52.20;;;;;;5021056;28;20413;-44
2022/03/05 08:49:11;;;;;;;57.10;23.15;;;5.10;52.10;;;;;;5018582;28;20045;-43
2022/03/05 08:51:39;;;;;;;54.92;22.42;;;5.10;51.90;;;;;;5024090;28;20061;-44
2022/03/05 08:54:08;;;;;;;58.03;24.48;;;5.20;51.90;;;;;;5023922;28;20425;-43
2022/03/05 08:56:35;;;;;;;60.10;24.20;;;5.30;51.80;;;;;;5021659;28;20053;-43
2022/03/05 08:59:03;;;;;;;51.88;22.67;;;5.30;51.70;;;;;;5024765;28;20080;-43
2022/03/05 09:01:31;;;;;;;58.53;23.45;;;5.30;51.70;;;;;;5020765;28;20074;-43
2022/03/05 09:03:58;;;;;;;55.65;24.70;;;5.40;51.50;;;;;;5019079;28;20053;-43
2022/03/05 09:06:26;;;;;;;53.63;22.45;;;5.50;51.40;;;;;;5023585;28;20057;-42
2022/03/05 09:08:54;;;;;;;48.65;21.63;;;5.50;51.30;;;;;;5023428;28;20493;-42
2022/03/05 09:11:22;;;;;;;51.22;22.25;;;5.60;51.30;;;;;;5021618;28;20060;-44
2022/03/05 09:13:50;;;;;;;50.78;22.75;;;5.60;51.20;;;;;;5022451;28;20053;-43
2022/03/05 09:16:18;;;;;;;55.15;23.20;;;5.70;51.10;;;;;;5022511;28;20417;-43
2022/03/05 09:18:46;;;;;;;49.28;23.45;;;5.80;51.00;;;;;;5020676;28;20560;-46
2022/03/05 09:21:13;;;;;;;50.95;22.42;;;5.80;50.90;;;;;;5023173;28;20107;-42
2022/03/05 09:23:41;;;;;;;49.90;22.48;;;5.90;50.90;;;;;;5021392;28;20045;-43
2022/03/05 09:26:08;;;;;;;48.95;22.88;;;5.90;50.80;;;;;;5023713;28;20072;-43
2022/03/05 09:28:37;;;;;;;54.85;22.80;;;6.00;50.60;;;;;;5024560;28;20057;-43
2022/03/05 09:31:05;;;;;;;55.67;23.50;;;6.10;50.80;;;;;;5021642;28;20057;-43
2022/03/05 09:33:33;;;;;;;58.25;24.52;;;6.10;50.90;;;;;;5021889;28;20064;-44
2022/03/05 09:36:00;;;;;;;52.33;23.00;;;6.20;50.70;;;;;;5024200;28;20476;-43
2022/03/05 09:38:28;;;;;;;50.05;22.60;;;6.20;50.40;;;;;;5018746;28;20061;-45
2022/03/05 09:40:55;;;;;;;50.80;22.70;;;6.30;50.30;;;;;;5021760;28;20050;-46
2022/03/05 09:43:24;;;;;;;51.25;24.00;;;6.40;50.40;;;;;;5023005;28;20607;-44
2022/03/05 09:45:53;;;;;;;46.58;21.45;;;6.40;50.20;;;;;;5020534;28;20501;-43
2022/03/05 09:48:20;;;;;;;51.85;23.38;;;6.50;49.90;;;;;;5022401;28;20060;-43
2022/03/05 09:50:48;;;;;;;56.88;22.55;;;6.60;49.80;;;;;;5018882;28;20053;-43
2022/03/05 09:53:16;;;;;;;54.35;22.33;;;6.60;49.60;;;;;;5019543;28;20439;-43
2022/03/05 09:55:44;;;;;;;52.08;22.38;;;6.70;49.60;;;;;;5020741;28;20066;-43
2022/03/05 09:58:11;;;;;;;49.20;21.08;;;6.70;49.50;;;;;;5020629;28;20053;-44
2022/03/05 10:00:40;;;;;;;45.35;20.55;;;6.80;49.50;;;;;;5019670;28;20053;-45
2022/03/05 10:03:13;;;;;;;44.47;21.75;;;6.90;49.50;;;;;;5022768;28;20052;-43
2022/03/05 10:05:41;;;;;;;49.33;22.17;;;6.90;49.40;;;;;;5021453;28;20049;-43
2022/03/05 10:08:12;;;;;;;55.58;23.10;;;7.00;49.90;;;;;;5020927;28;20951;-43
2022/03/05 10:11:06;;;;;;;52.53;22.30;;;7.00;49.20;;;;;;5019015;28;20119;-47
2022/03/05 10:13:35;;;;;;;44.53;19.75;;;7.10;49.20;;;;;;5020744;28;20049;-43
2022/03/05 10:16:04;;;;;;;44.33;21.45;;;7.20;49.20;;;;;;5022078;28;20060;-43
2022/03/05 10:18:35;;;;;;;44.63;21.83;;;7.20;49.00;;;;;;5020456;28;20049;-43
2022/03/05 10:21:05;;;;;;;48.47;21.65;;;7.30;48.80;;;;;;5022938;28;20073;-43
2022/03/05 10:23:36;;;;;;;43.53;20.30;;;7.30;48.90;;;;;;5023095;28;20493;-44
2022/03/05 10:26:05;;;;;;;47.15;21.65;;;7.40;49.00;;;;;;5023564;28;20064;-43
2022/03/05 10:28:33;;;;;;;45.83;20.33;;;7.40;48.60;;;;;;5022937;28;20053;-43
2022/03/05 10:31:04;;;;;;;47.38;20.77;;;7.50;48.40;;;;;;5022060;28;20053;-43
2022/03/05 10:33:35;;;;;;;54.83;21.63;;;7.60;48.40;;;;;;5020584;28;20595;-43
2022/03/05 10:36:05;;;;;;;44.35;20.55;;;7.70;48.40;;;;;;5021842;28;20053;-43
2022/03/05 10:38:47;;;;;;;46.00;21.52;;;7.70;48.40;;;;;;5021385;28;20049;-43
2022/03/05 10:41:17;;;;;;;47.70;21.13;;;7.80;48.20;;;;;;5022544;28;20049;-43
2022/03/05 10:43:45;;;;;;;43.00;20.08;;;7.90;47.90;;;;;;5017745;28;20057;-43
2022/03/05 10:46:13;;;;;;;38.85;18.55;;;8.00;48.00;;;;;;5021603;28;20053;-43
2022/03/05 10:48:44;;;;;;;39.03;19.38;;;8.00;48.30;;;;;;5019606;28;20528;-44
2022/03/05 10:51:14;;;;;;;36.17;18.83;;;8.00;47.90;;;;;;5022866;28;20060;-44
2022/03/05 10:53:43;;;;;;;42.38;18.45;;;8.10;47.80;;;;;;5021576;28;20049;-43
2022/03/05 10:56:32;;;;;;;38.95;18.67;;;8.10;47.70;;;;;;5023420;28;20068;-43
2022/03/05 10:59:08;;;;;;;36.95;18.42;;;8.20;47.40;;;;;;5021410;28;20083;-43
2022/03/05 11:01:38;;;;;;;40.05;18.33;;;8.20;47.30;;;;;;5018291;28;20049;-43
2022/03/05 11:04:08;;;;;;;34.00;17.17;;;8.30;47.20;;;;;;5018556;28;20049;-43
2022/03/05 11:06:38;;;;;;;47.80;22.45;;;8.30;47.00;;;;;;5016431;28;20057;-43
2022/03/05 11:09:06;;;;;;;42.10;18.67;;;8.30;46.70;;;;;;5017636;28;20049;-43
2022/03/05 11:11:37;;;;;;;32.85;16.83;;;8.40;46.60;;;;;;5020645;28;20440;-43
2022/03/05 11:14:06;;;;;;;32.63;17.20;;;8.50;46.80;;;;;;5014533;28;20049;-43
2022/03/05 11:16:34;;;;;;;35.03;16.45;;;8.50;46.60;;;;;;5017753;28;20061;-43
2022/03/05 11:19:02;;;;;;;33.38;16.27;;;8.50;46.30;;;;;;5013065;28;20056;-43
2022/03/05 11:21:31;;;;;;;34.53;17.25;;;8.60;45.70;;;;;;5011943;28;20500;-43
2022/03/05 11:24:00;;;;;;;33.92;16.17;;;8.70;45.40;;;;;;5012079;28;20505;-45
2022/03/05 11:26:30;;;;;;;34.83;16.17;;;8.70;45.30;;;;;;5022016;28;20069;-43
2022/03/05 11:28:58;;;;;;;33.55;16.25;;;8.80;45.30;;;;;;5021843;28;20060;-43
2022/03/05 11:31:31;;;;;;;35.67;15.85;;;8.80;45.10;;;;;;5023115;28;20103;-43
2022/03/05 11:34:13;;;;;;;28.20;14.40;;;8.90;45.10;;;;;;5019027;28;20050;-43
2022/03/05 11:36:43;;;;;;;33.10;14.90;;;8.90;44.80;;;;;;5022766;28;20061;-43
2022/03/05 11:39:16;;;;;;;29.25;15.35;;;8.90;44.70;;;;;;5021545;28;20053;-43
2022/03/05 11:42:02;;;;;;;28.85;14.77;;;9.00;44.50;;;;;;5020786;28;20068;-44
2022/03/05 11:44:38;;;;;;;31.05;15.15;;;9.00;44.10;;;;;;5016258;28;20424;-46
2022/03/05 11:47:23;;;;;;;31.10;15.23;;;9.00;44.80;;;;;;5015885;28;20058;-43
2022/03/05 11:50:16;;;;;;;28.95;14.77;;;9.10;44.00;;;;;;5002233;28;20524;-46
2022/03/05 11:53:08;;;;;;;27.85;14.55;;;9.20;44.00;;;;;;5010328;28;21331;-43
2022/03/05 11:55:41;;;;;;;31.95;14.77;;;9.20;43.40;;;;;;5019478;28;20056;-43
2022/03/05 11:58:36;;;;;;;32.17;13.90;;;9.30;43.10;;;;;;5021899;28;20049;-43
2022/03/05 12:01:35;;;;;;;25.33;12.93;;;9.30;42.80;;;;;;5018814;28;20053;-47
2022/03/05 12:04:18;;;;;;;34.60;16.27;;;9.40;42.40;;;;;;5019721;28;20095;-42
2022/03/05 12:06:47;;;;;;;24.92;12.57;;;9.40;42.30;;;;;;5019433;28;20068;-46
2022/03/05 12:09:44;;;;;;;25.45;12.02;;;9.50;42.00;;;;;;5003544;28;20061;-43
2022/03/05 12:12:14;;;;;;;24.25;11.23;;;9.50;40.70;;;;;;5022725;28;20057;-43
2022/03/05 12:15:13;;;;;;;26.90;11.90;;;9.50;40.90;;;;;;5017766;28;20057;-45
2022/03/05 12:17:47;;;;;;;25.80;12.45;;;9.50;40.70;;;;;;5020204;28;20057;-43
2022/03/05 12:20:18;;;;;;;18.83;10.77;;;9.60;40.70;;;;;;5020753;28;20056;-43
2022/03/05 12:23:01;;;;;;;21.15;10.85;;;9.60;40.50;;;;;;5026908;28;20421;-43
2022/03/05 12:25:31;;;;;;;19.85;10.05;;;9.60;40.10;;;;;;5024758;28;20521;-46
2022/03/05 12:28:00;;;;;;;15.65;7.72;;;9.70;40.50;;;;;;5022866;28;20415;-43
2022/03/05 12:30:31;;;;;;;17.52;9.43;;;9.70;40.00;;;;;;5027040;28;20057;-45
2022/03/05 12:33:01;;;;;;;19.50;10.55;;;9.80;39.90;;;;;;5025150;28;20053;-43
2022/03/05 12:35:29;;;;;;;19.73;9.73;;;9.80;39.50;;;;;;5021949;28;20061;-45
2022/03/05 12:37:57;;;;;;;18.92;9.68;;;9.80;39.40;;;;;;5023609;28;20060;-43
2022/03/05 12:40:26;;;;;;;17.25;8.95;;;9.80;38.80;;;;;;5023253;28;20508;-42
2022/03/05 12:42:56;;;;;;;18.05;9.05;;;9.80;38.50;;;;;;5024499;28;20528;-43
2022/03/05 12:45:26;;;;;;;17.55;8.90;;;9.90;38.10;;;;;;5023364;28;20052;-46
2022/03/05 12:47:55;;;;;;;12.80;7.70;;;9.90;38.30;;;;;;5022424;28;20701;-42
2022/03/05 12:50:28;;;;;;;16.98;8.82;;;9.90;38.30;;;;;;5024430;28;20062;-42